sensor_id;sensor_type;location;lat;lon;timestamp;P1;durP1;ratioP1;P2;durP2;ratioP2
16579;SDS011;8402;51.466;6.806;2023-01-05T00:02:22;25.73;;;4.17;;
16579;SDS011;8402;51.466;6.806;2023-01-05T00:04:52;20.23;;;3.57;;
16579;SDS011;8402;51.466;6.806;2023-01-05T00:07:22;19.60;;;4.17;;
16579;SDS011;8402;51.466;6.806;2023-01-05T00:09:54;26.60;;;4.30;;
16579;SDS011;8402;51.466;6.806;2023-01-05T00:12:23;21.33;;;4.33;;
16579;SDS011;8402;51.466;6.806;2023-01-05T00:15:07;20.40;;;3.63;;
16579;SDS011;8402;51.466;6.806;2023-01-05T00:17:53;12.03;;;2.83;;
16579;SDS011;8402;51.466;6.806;2023-01-05T00:20:35;20.23;;;3.37;;
16579;SDS011;8402;51.466;6.806;2023-01-05T00:23:17;22.17;;;4.20;;
16579;SDS011;8402;51.466;6.806;2023-01-05T00:25:48;16.77;;;3.73;;
16579;SDS011;8402;51.466;6.806;2023-01-05T00:28:18;16.47;;;3.83;;
16579;SDS011;8402;51.466;6.806;2023-01-05T00:30:48;19.63;;;4.10;;
16579;SDS011;8402;51.466;6.806;2023-01-05T00:33:20;17.83;;;3.53;;
16579;SDS011;8402;51.466;6.806;2023-01-05T00:35:50;20.53;;;3.63;;
16579;SDS011;8402;51.466;6.806;2023-01-05T00:38:20;21.07;;;3.73;;
16579;SDS011;8402;51.466;6.806;2023-01-05T00:40:50;9.57;;;3.50;;
16579;SDS011;8402;51.466;6.806;2023-01-05T00:43:21;18.00;;;4.10;;
16579;SDS011;8402;51.466;6.806;2023-01-05T00:45:50;17.73;;;3.20;;
16579;SDS011;8402;51.466;6.806;2023-01-05T00:48:23;20.73;;;3.57;;
16579;SDS011;8402;51.466;6.806;2023-01-05T00:50:53;23.50;;;3.50;;
16579;SDS011;8402;51.466;6.806;2023-01-05T00:53:23;17.20;;;3.67;;
16579;SDS011;8402;51.466;6.806;2023-01-05T00:55:56;19.73;;;3.00;;
16579;SDS011;8402;51.466;6.806;2023-01-05T00:58:26;19.83;;;3.47;;
16579;SDS011;8402;51.466;6.806;2023-01-05T01:00:56;12.80;;;3.27;;
16579;SDS011;8402;51.466;6.806;2023-01-05T01:03:29;23.17;;;3.73;;
16579;SDS011;8402;51.466;6.806;2023-01-05T01:05:59;12.03;;;2.30;;
16579;SDS011;8402;51.466;6.806;2023-01-05T01:08:29;19.17;;;3.47;;
16579;SDS011;8402;51.466;6.806;2023-01-05T01:11:02;21.83;;;4.10;;
16579;SDS011;8402;51.466;6.806;2023-01-05T01:13:32;21.73;;;3.80;;
16579;SDS011;8402;51.466;6.806;2023-01-05T01:16:04;23.30;;;3.97;;
16579;SDS011;8402;51.466;6.806;2023-01-05T01:18:38;18.07;;;3.47;;
16579;SDS011;8402;51.466;6.806;2023-01-05T01:21:08;24.03;;;3.97;;
16579;SDS011;8402;51.466;6.806;2023-01-05T01:23:38;25.33;;;3.90;;
16579;SDS011;8402;51.466;6.806;2023-01-05T01:26:09;16.63;;;3.37;;
16579;SDS011;8402;51.466;6.806;2023-01-05T01:28:41;19.10;;;3.70;;
16579;SDS011;8402;51.466;6.806;2023-01-05T01:31:11;16.90;;;3.10;;
16579;SDS011;8402;51.466;6.806;2023-01-05T01:33:43;18.23;;;3.33;;
16579;SDS011;8402;51.466;6.806;2023-01-05T01:36:14;12.23;;;3.17;;
16579;SDS011;8402;51.466;6.806;2023-01-05T01:38:44;23.70;;;3.50;;
16579;SDS011;8402;51.466;6.806;2023-01-05T01:41:14;21.33;;;4.07;;
16579;SDS011;8402;51.466;6.806;2023-01-05T01:43:47;22.67;;;4.07;;
16579;SDS011;8402;51.466;6.806;2023-01-05T01:46:19;15.80;;;3.23;;
16579;SDS011;8402;51.466;6.806;2023-01-05T01:48:53;18.87;;;3.43;;
16579;SDS011;8402;51.466;6.806;2023-01-05T01:51:28;17.67;;;3.20;;
16579;SDS011;8402;51.466;6.806;2023-01-05T01:54:00;13.57;;;3.17;;
16579;SDS011;8402;51.466;6.806;2023-01-05T01:56:34;18.97;;;3.60;;
16579;SDS011;8402;51.466;6.806;2023-01-05T01:59:06;15.30;;;3.10;;
16579;SDS011;8402;51.466;6.806;2023-01-05T02:01:36;14.63;;;3.10;;
16579;SDS011;8402;51.466;6.806;2023-01-05T02:04:09;16.30;;;3.70;;
16579;SDS011;8402;51.466;6.806;2023-01-05T02:06:40;19.73;;;3.60;;
16579;SDS011;8402;51.466;6.806;2023-01-05T02:09:10;17.27;;;2.83;;
16579;SDS011;8402;51.466;6.806;2023-01-05T02:11:42;19.40;;;3.83;;
16579;SDS011;8402;51.466;6.806;2023-01-05T02:14:22;18.43;;;3.33;;
16579;SDS011;8402;51.466;6.806;2023-01-05T02:17:03;21.30;;;4.27;;
16579;SDS011;8402;51.466;6.806;2023-01-05T02:19:53;23.80;;;3.57;;
16579;SDS011;8402;51.466;6.806;2023-01-05T02:22:48;16.57;;;3.47;;
16579;SDS011;8402;51.466;6.806;2023-01-05T02:25:46;21.70;;;3.67;;
16579;SDS011;8402;51.466;6.806;2023-01-05T02:28:35;17.00;;;3.50;;
16579;SDS011;8402;51.466;6.806;2023-01-05T02:31:22;15.90;;;3.40;;
16579;SDS011;8402;51.466;6.806;2023-01-05T02:34:08;19.73;;;3.67;;
16579;SDS011;8402;51.466;6.806;2023-01-05T02:36:48;18.40;;;3.60;;
16579;SDS011;8402;51.466;6.806;2023-01-05T02:39:23;22.57;;;4.53;;
16579;SDS011;8402;51.466;6.806;2023-01-05T02:41:57;14.17;;;3.03;;
16579;SDS011;8402;51.466;6.806;2023-01-05T02:44:31;19.47;;;3.23;;
16579;SDS011;8402;51.466;6.806;2023-01-05T02:47:05;18.30;;;3.73;;
16579;SDS011;8402;51.466;6.806;2023-01-05T02:49:57;21.33;;;3.40;;
16579;SDS011;8402;51.466;6.806;2023-01-05T02:52:29;20.47;;;3.67;;
16579;SDS011;8402;51.466;6.806;2023-01-05T02:55:08;21.53;;;3.53;;
16579;SDS011;8402;51.466;6.806;2023-01-05T02:57:43;24.87;;;4.33;;
16579;SDS011;8402;51.466;6.806;2023-01-05T03:00:17;19.93;;;3.77;;
16579;SDS011;8402;51.466;6.806;2023-01-05T03:02:54;14.80;;;3.17;;
16579;SDS011;8402;51.466;6.806;2023-01-05T03:05:29;18.50;;;3.07;;
16579;SDS011;8402;51.466;6.806;2023-01-05T03:08:03;24.23;;;3.47;;
16579;SDS011;8402;51.466;6.806;2023-01-05T03:10:54;20.20;;;3.33;;
16579;SDS011;8402;51.466;6.806;2023-01-05T03:13:42;18.73;;;3.00;;
16579;SDS011;8402;51.466;6.806;2023-01-05T03:16:17;27.37;;;3.70;;
16579;SDS011;8402;51.466;6.806;2023-01-05T03:18:53;19.30;;;2.93;;
16579;SDS011;8402;51.466;6.806;2023-01-05T03:21:38;17.33;;;3.43;;
16579;SDS011;8402;51.466;6.806;2023-01-05T03:24:21;13.93;;;3.03;;
16579;SDS011;8402;51.466;6.806;2023-01-05T03:27:03;22.13;;;3.83;;
16579;SDS011;8402;51.466;6.806;2023-01-05T03:29:47;22.57;;;3.03;;
16579;SDS011;8402;51.466;6.806;2023-01-05T03:32:30;16.10;;;2.83;;
16579;SDS011;8402;51.466;6.806;2023-01-05T03:35:19;20.83;;;3.00;;
16579;SDS011;8402;51.466;6.806;2023-01-05T03:38:01;13.87;;;2.40;;
16579;SDS011;8402;51.466;6.806;2023-01-05T03:40:43;15.20;;;2.33;;
16579;SDS011;8402;51.466;6.806;2023-01-05T03:43:14;19.07;;;3.40;;
16579;SDS011;8402;51.466;6.806;2023-01-05T03:45:46;25.90;;;4.13;;
16579;SDS011;8402;51.466;6.806;2023-01-05T03:48:21;18.93;;;3.30;;
16579;SDS011;8402;51.466;6.806;2023-01-05T03:50:54;22.23;;;3.80;;
16579;SDS011;8402;51.466;6.806;2023-01-05T03:53:24;18.90;;;4.03;;
16579;SDS011;8402;51.466;6.806;2023-01-05T03:55:54;32.87;;;4.60;;
16579;SDS011;8402;51.466;6.806;2023-01-05T03:58:24;20.60;;;3.60;;
16579;SDS011;8402;51.466;6.806;2023-01-05T04:00:54;11.10;;;2.90;;
16579;SDS011;8402;51.466;6.806;2023-01-05T04:03:24;17.17;;;3.30;;
16579;SDS011;8402;51.466;6.806;2023-01-05T04:06:00;18.80;;;3.57;;
16579;SDS011;8402;51.466;6.806;2023-01-05T04:08:30;12.93;;;2.60;;
16579;SDS011;8402;51.466;6.806;2023-01-05T04:11:09;20.57;;;3.30;;
16579;SDS011;8402;51.466;6.806;2023-01-05T04:13:40;23.20;;;3.47;;
16579;SDS011;8402;51.466;6.806;2023-01-05T04:16:10;18.67;;;3.63;;
16579;SDS011;8402;51.466;6.806;2023-01-05T04:18:40;24.53;;;4.33;;
16579;SDS011;8402;51.466;6.806;2023-01-05T04:21:13;22.13;;;3.70;;
16579;SDS011;8402;51.466;6.806;2023-01-05T04:23:42;13.73;;;3.17;;
16579;SDS011;8402;51.466;6.806;2023-01-05T04:26:12;24.57;;;3.70;;
16579;SDS011;8402;51.466;6.806;2023-01-05T04:28:42;24.57;;;3.73;;
16579;SDS011;8402;51.466;6.806;2023-01-05T04:31:12;14.97;;;3.60;;
16579;SDS011;8402;51.466;6.806;2023-01-05T04:33:42;17.50;;;3.83;;
16579;SDS011;8402;51.466;6.806;2023-01-05T04:36:14;15.43;;;3.10;;
16579;SDS011;8402;51.466;6.806;2023-01-05T04:38:44;14.20;;;3.47;;
16579;SDS011;8402;51.466;6.806;2023-01-05T04:41:17;24.70;;;4.07;;
16579;SDS011;8402;51.466;6.806;2023-01-05T04:43:47;14.70;;;3.77;;
16579;SDS011;8402;51.466;6.806;2023-01-05T04:46:17;25.47;;;4.00;;
16579;SDS011;8402;51.466;6.806;2023-01-05T04:48:47;12.90;;;3.37;;
16579;SDS011;8402;51.466;6.806;2023-01-05T04:51:19;20.50;;;3.73;;
16579;SDS011;8402;51.466;6.806;2023-01-05T04:53:49;16.10;;;3.43;;
16579;SDS011;8402;51.466;6.806;2023-01-05T04:56:19;18.07;;;3.20;;
16579;SDS011;8402;51.466;6.806;2023-01-05T04:58:49;22.53;;;3.70;;
16579;SDS011;8402;51.466;6.806;2023-01-05T05:01:18;16.73;;;3.57;;
16579;SDS011;8402;51.466;6.806;2023-01-05T05:03:48;17.70;;;3.97;;
16579;SDS011;8402;51.466;6.806;2023-01-05T05:06:22;18.83;;;2.97;;
16579;SDS011;8402;51.466;6.806;2023-01-05T05:08:52;18.50;;;3.43;;
16579;SDS011;8402;51.466;6.806;2023-01-05T05:11:22;22.20;;;3.23;;
16579;SDS011;8402;51.466;6.806;2023-01-05T05:13:52;26.57;;;3.90;;
16579;SDS011;8402;51.466;6.806;2023-01-05T05:16:22;17.20;;;3.63;;
16579;SDS011;8402;51.466;6.806;2023-01-05T05:18:51;22.60;;;3.83;;
16579;SDS011;8402;51.466;6.806;2023-01-05T05:21:25;19.67;;;3.37;;
16579;SDS011;8402;51.466;6.806;2023-01-05T05:23:55;20.37;;;3.37;;
16579;SDS011;8402;51.466;6.806;2023-01-05T05:26:25;13.00;;;2.80;;
16579;SDS011;8402;51.466;6.806;2023-01-05T05:28:56;21.03;;;3.13;;
16579;SDS011;8402;51.466;6.806;2023-01-05T05:31:26;22.10;;;3.60;;
16579;SDS011;8402;51.466;6.806;2023-01-05T05:33:56;14.73;;;3.03;;
16579;SDS011;8402;51.466;6.806;2023-01-05T05:36:28;12.37;;;2.93;;
16579;SDS011;8402;51.466;6.806;2023-01-05T05:38:58;19.30;;;3.43;;
16579;SDS011;8402;51.466;6.806;2023-01-05T05:41:28;22.17;;;3.50;;
16579;SDS011;8402;51.466;6.806;2023-01-05T05:43:58;19.00;;;2.70;;
16579;SDS011;8402;51.466;6.806;2023-01-05T05:46:28;22.90;;;3.33;;
16579;SDS011;8402;51.466;6.806;2023-01-05T05:48:58;20.70;;;3.53;;
16579;SDS011;8402;51.466;6.806;2023-01-05T05:51:31;17.83;;;3.37;;
16579;SDS011;8402;51.466;6.806;2023-01-05T05:54:01;21.03;;;3.50;;
16579;SDS011;8402;51.466;6.806;2023-01-05T05:56:30;22.07;;;4.33;;
16579;SDS011;8402;51.466;6.806;2023-01-05T05:59:00;18.03;;;3.30;;
16579;SDS011;8402;51.466;6.806;2023-01-05T06:01:30;22.57;;;3.23;;
16579;SDS011;8402;51.466;6.806;2023-01-05T06:04:00;14.40;;;3.27;;
16579;SDS011;8402;51.466;6.806;2023-01-05T06:06:33;21.97;;;4.07;;
16579;SDS011;8402;51.466;6.806;2023-01-05T06:09:03;20.83;;;3.57;;
16579;SDS011;8402;51.466;6.806;2023-01-05T06:11:33;20.53;;;3.43;;
16579;SDS011;8402;51.466;6.806;2023-01-05T06:14:04;24.03;;;3.60;;
16579;SDS011;8402;51.466;6.806;2023-01-05T06:16:34;13.17;;;3.07;;
16579;SDS011;8402;51.466;6.806;2023-01-05T06:19:04;17.07;;;3.70;;
16579;SDS011;8402;51.466;6.806;2023-01-05T06:21:36;18.53;;;4.07;;
16579;SDS011;8402;51.466;6.806;2023-01-05T06:24:06;19.87;;;3.77;;
16579;SDS011;8402;51.466;6.806;2023-01-05T06:26:36;11.80;;;3.07;;
16579;SDS011;8402;51.466;6.806;2023-01-05T06:29:06;22.23;;;3.30;;
16579;SDS011;8402;51.466;6.806;2023-01-05T06:31:36;18.97;;;3.30;;
16579;SDS011;8402;51.466;6.806;2023-01-05T06:34:06;27.50;;;4.03;;
16579;SDS011;8402;51.466;6.806;2023-01-05T06:36:39;25.13;;;3.43;;
16579;SDS011;8402;51.466;6.806;2023-01-05T06:39:08;18.37;;;3.60;;
16579;SDS011;8402;51.466;6.806;2023-01-05T06:41:39;30.33;;;4.60;;
16579;SDS011;8402;51.466;6.806;2023-01-05T06:44:09;24.60;;;3.50;;
16579;SDS011;8402;51.466;6.806;2023-01-05T06:46:38;15.37;;;3.17;;
16579;SDS011;8402;51.466;6.806;2023-01-05T06:49:09;23.03;;;3.90;;
16579;SDS011;8402;51.466;6.806;2023-01-05T06:51:42;23.60;;;4.07;;
16579;SDS011;8402;51.466;6.806;2023-01-05T06:54:12;23.80;;;3.83;;
16579;SDS011;8402;51.466;6.806;2023-01-05T06:56:42;20.70;;;4.03;;
16579;SDS011;8402;51.466;6.806;2023-01-05T06:59:12;18.50;;;4.07;;
16579;SDS011;8402;51.466;6.806;2023-01-05T07:01:45;23.73;;;3.57;;
16579;SDS011;8402;51.466;6.806;2023-01-05T07:04:15;19.30;;;4.07;;
16579;SDS011;8402;51.466;6.806;2023-01-05T07:06:47;23.77;;;4.47;;
16579;SDS011;8402;51.466;6.806;2023-01-05T07:09:17;24.83;;;3.90;;
16579;SDS011;8402;51.466;6.806;2023-01-05T07:11:47;22.73;;;3.97;;
16579;SDS011;8402;51.466;6.806;2023-01-05T07:14:17;22.43;;;4.10;;
16579;SDS011;8402;51.466;6.806;2023-01-05T07:16:47;19.60;;;3.33;;
16579;SDS011;8402;51.466;6.806;2023-01-05T07:19:17;25.73;;;4.40;;
16579;SDS011;8402;51.466;6.806;2023-01-05T07:21:49;22.90;;;4.03;;
16579;SDS011;8402;51.466;6.806;2023-01-05T07:24:22;22.10;;;3.80;;
16579;SDS011;8402;51.466;6.806;2023-01-05T07:26:52;19.53;;;3.87;;
16579;SDS011;8402;51.466;6.806;2023-01-05T07:29:22;27.57;;;4.70;;
16579;SDS011;8402;51.466;6.806;2023-01-05T07:31:54;25.20;;;4.23;;
16579;SDS011;8402;51.466;6.806;2023-01-05T07:34:24;26.13;;;3.80;;
16579;SDS011;8402;51.466;6.806;2023-01-05T07:36:57;18.63;;;4.23;;
16579;SDS011;8402;51.466;6.806;2023-01-05T07:39:26;24.97;;;4.33;;
16579;SDS011;8402;51.466;6.806;2023-01-05T07:41:58;18.07;;;3.80;;
16579;SDS011;8402;51.466;6.806;2023-01-05T07:44:28;26.67;;;3.90;;
16579;SDS011;8402;51.466;6.806;2023-01-05T07:46:58;21.00;;;4.00;;
16579;SDS011;8402;51.466;6.806;2023-01-05T07:49:28;22.97;;;4.50;;
16579;SDS011;8402;51.466;6.806;2023-01-05T07:52:00;24.60;;;4.63;;
16579;SDS011;8402;51.466;6.806;2023-01-05T07:54:30;19.77;;;4.63;;
16579;SDS011;8402;51.466;6.806;2023-01-05T07:57:00;27.53;;;4.60;;
16579;SDS011;8402;51.466;6.806;2023-01-05T07:59:30;23.90;;;4.70;;
16579;SDS011;8402;51.466;6.806;2023-01-05T08:02:00;22.03;;;4.27;;
16579;SDS011;8402;51.466;6.806;2023-01-05T08:04:30;24.73;;;4.37;;
16579;SDS011;8402;51.466;6.806;2023-01-05T08:07:03;16.53;;;3.87;;
16579;SDS011;8402;51.466;6.806;2023-01-05T08:09:38;24.07;;;4.03;;
16579;SDS011;8402;51.466;6.806;2023-01-05T08:12:20;20.73;;;4.17;;
16579;SDS011;8402;51.466;6.806;2023-01-05T08:14:50;26.97;;;4.77;;
16579;SDS011;8402;51.466;6.806;2023-01-05T08:17:20;21.90;;;4.07;;
16579;SDS011;8402;51.466;6.806;2023-01-05T08:19:51;26.80;;;4.33;;
16579;SDS011;8402;51.466;6.806;2023-01-05T08:22:26;32.97;;;4.57;;
16579;SDS011;8402;51.466;6.806;2023-01-05T08:24:55;31.07;;;5.37;;
16579;SDS011;8402;51.466;6.806;2023-01-05T08:27:26;35.47;;;5.40;;
16579;SDS011;8402;51.466;6.806;2023-01-05T08:29:55;31.33;;;4.57;;
16579;SDS011;8402;51.466;6.806;2023-01-05T08:32:25;35.80;;;5.77;;
16579;SDS011;8402;51.466;6.806;2023-01-05T08:34:55;30.37;;;4.53;;
16579;SDS011;8402;51.466;6.806;2023-01-05T08:37:28;30.90;;;4.90;;
16579;SDS011;8402;51.466;6.806;2023-01-05T08:39:58;26.47;;;4.33;;
16579;SDS011;8402;51.466;6.806;2023-01-05T08:42:29;36.43;;;5.07;;
16579;SDS011;8402;51.466;6.806;2023-01-05T08:44:59;22.73;;;4.30;;
16579;SDS011;8402;51.466;6.806;2023-01-05T08:47:29;28.17;;;4.27;;
16579;SDS011;8402;51.466;6.806;2023-01-05T08:49:59;32.23;;;4.47;;
16579;SDS011;8402;51.466;6.806;2023-01-05T08:52:33;27.80;;;4.63;;
16579;SDS011;8402;51.466;6.806;2023-01-05T08:55:03;34.93;;;5.67;;
16579;SDS011;8402;51.466;6.806;2023-01-05T08:57:33;28.53;;;5.23;;
16579;SDS011;8402;51.466;6.806;2023-01-05T09:00:04;24.33;;;4.23;;
16579;SDS011;8402;51.466;6.806;2023-01-05T09:02:35;28.00;;;5.10;;
16579;SDS011;8402;51.466;6.806;2023-01-05T09:05:05;26.70;;;4.10;;
16579;SDS011;8402;51.466;6.806;2023-01-05T09:07:38;20.73;;;4.03;;
16579;SDS011;8402;51.466;6.806;2023-01-05T09:10:08;29.83;;;4.80;;
16579;SDS011;8402;51.466;6.806;2023-01-05T09:12:41;35.50;;;4.93;;
16579;SDS011;8402;51.466;6.806;2023-01-05T09:15:11;28.13;;;5.37;;
16579;SDS011;8402;51.466;6.806;2023-01-05T09:17:41;25.77;;;4.90;;
16579;SDS011;8402;51.466;6.806;2023-01-05T09:20:11;29.40;;;5.07;;
16579;SDS011;8402;51.466;6.806;2023-01-05T09:22:43;29.30;;;4.87;;
16579;SDS011;8402;51.466;6.806;2023-01-05T09:25:13;21.93;;;4.60;;
16579;SDS011;8402;51.466;6.806;2023-01-05T09:27:43;24.70;;;5.53;;
16579;SDS011;8402;51.466;6.806;2023-01-05T09:30:13;29.20;;;5.07;;
16579;SDS011;8402;51.466;6.806;2023-01-05T09:32:43;30.60;;;5.57;;
16579;SDS011;8402;51.466;6.806;2023-01-05T09:35:13;24.80;;;4.87;;
16579;SDS011;8402;51.466;6.806;2023-01-05T09:37:46;29.33;;;5.27;;
16579;SDS011;8402;51.466;6.806;2023-01-05T09:40:16;27.70;;;6.10;;
16579;SDS011;8402;51.466;6.806;2023-01-05T09:42:46;26.20;;;5.30;;
16579;SDS011;8402;51.466;6.806;2023-01-05T09:45:20;29.23;;;4.97;;
16579;SDS011;8402;51.466;6.806;2023-01-05T09:47:57;27.97;;;5.20;;
16579;SDS011;8402;51.466;6.806;2023-01-05T09:50:29;30.43;;;5.10;;
16579;SDS011;8402;51.466;6.806;2023-01-05T09:53:01;23.80;;;4.77;;
16579;SDS011;8402;51.466;6.806;2023-01-05T09:55:33;19.50;;;4.50;;
16579;SDS011;8402;51.466;6.806;2023-01-05T09:58:06;25.03;;;4.27;;
16579;SDS011;8402;51.466;6.806;2023-01-05T10:00:42;22.63;;;4.43;;
16579;SDS011;8402;51.466;6.806;2023-01-05T10:03:17;28.77;;;5.03;;
16579;SDS011;8402;51.466;6.806;2023-01-05T10:06:10;34.50;;;5.83;;
16579;SDS011;8402;51.466;6.806;2023-01-05T10:08:47;23.43;;;4.40;;
16579;SDS011;8402;51.466;6.806;2023-01-05T10:11:19;25.57;;;5.10;;
16579;SDS011;8402;51.466;6.806;2023-01-05T10:14:08;25.63;;;4.93;;
16579;SDS011;8402;51.466;6.806;2023-01-05T10:16:41;26.20;;;5.10;;
16579;SDS011;8402;51.466;6.806;2023-01-05T10:19:33;29.17;;;4.70;;
16579;SDS011;8402;51.466;6.806;2023-01-05T10:22:05;27.67;;;4.70;;
16579;SDS011;8402;51.466;6.806;2023-01-05T10:24:51;26.13;;;5.13;;
16579;SDS011;8402;51.466;6.806;2023-01-05T10:27:26;28.00;;;6.10;;
16579;SDS011;8402;51.466;6.806;2023-01-05T10:30:09;27.83;;;4.97;;
16579;SDS011;8402;51.466;6.806;2023-01-05T10:32:54;31.40;;;5.50;;
16579;SDS011;8402;51.466;6.806;2023-01-05T10:35:50;23.27;;;5.00;;
16579;SDS011;8402;51.466;6.806;2023-01-05T10:38:32;25.47;;;4.60;;
16579;SDS011;8402;51.466;6.806;2023-01-05T10:41:11;36.77;;;5.13;;
16579;SDS011;8402;51.466;6.806;2023-01-05T10:43:56;28.07;;;4.73;;
16579;SDS011;8402;51.466;6.806;2023-01-05T10:46:37;31.13;;;5.00;;
16579;SDS011;8402;51.466;6.806;2023-01-05T10:49:18;24.67;;;4.97;;
16579;SDS011;8402;51.466;6.806;2023-01-05T10:51:54;17.77;;;4.57;;
16579;SDS011;8402;51.466;6.806;2023-01-05T10:54:29;27.07;;;5.43;;
16579;SDS011;8402;51.466;6.806;2023-01-05T11:00:05;29.40;;;6.37;;
16579;SDS011;8402;51.466;6.806;2023-01-05T11:02:46;25.27;;;5.07;;
16579;SDS011;8402;51.466;6.806;2023-01-05T11:05:22;26.10;;;4.17;;
16579;SDS011;8402;51.466;6.806;2023-01-05T11:08:00;22.57;;;3.93;;
16579;SDS011;8402;51.466;6.806;2023-01-05T11:10:33;21.43;;;4.33;;
16579;SDS011;8402;51.466;6.806;2023-01-05T11:13:16;23.33;;;4.30;;
16579;SDS011;8402;51.466;6.806;2023-01-05T11:15:55;21.70;;;4.03;;
16579;SDS011;8402;51.466;6.806;2023-01-05T11:18:32;27.53;;;4.40;;
16579;SDS011;8402;51.466;6.806;2023-01-05T11:21:05;22.60;;;4.27;;
16579;SDS011;8402;51.466;6.806;2023-01-05T11:23:37;23.53;;;4.40;;
16579;SDS011;8402;51.466;6.806;2023-01-05T11:26:19;24.37;;;4.23;;
16579;SDS011;8402;51.466;6.806;2023-01-05T11:29:02;26.10;;;4.07;;
16579;SDS011;8402;51.466;6.806;2023-01-05T11:31:43;27.80;;;4.63;;
16579;SDS011;8402;51.466;6.806;2023-01-05T11:34:27;17.20;;;3.93;;
16579;SDS011;8402;51.466;6.806;2023-01-05T11:37:02;20.13;;;4.07;;
16579;SDS011;8402;51.466;6.806;2023-01-05T11:39:37;22.10;;;3.87;;
16579;SDS011;8402;51.466;6.806;2023-01-05T11:42:13;22.20;;;3.90;;
16579;SDS011;8402;51.466;6.806;2023-01-05T11:44:54;28.23;;;3.90;;
16579;SDS011;8402;51.466;6.806;2023-01-05T11:47:27;19.40;;;3.70;;
16579;SDS011;8402;51.466;6.806;2023-01-05T11:50:14;21.17;;;4.13;;
16579;SDS011;8402;51.466;6.806;2023-01-05T11:52:51;25.10;;;4.57;;
16579;SDS011;8402;51.466;6.806;2023-01-05T11:55:30;18.10;;;4.07;;
16579;SDS011;8402;51.466;6.806;2023-01-05T11:58:20;26.03;;;4.17;;
16579;SDS011;8402;51.466;6.806;2023-01-05T12:09:57;23.47;;;3.73;;
16579;SDS011;8402;51.466;6.806;2023-01-05T12:12:39;19.87;;;3.97;;
16579;SDS011;8402;51.466;6.806;2023-01-05T12:15:29;21.00;;;3.67;;
16579;SDS011;8402;51.466;6.806;2023-01-05T12:18:22;22.00;;;3.37;;
16579;SDS011;8402;51.466;6.806;2023-01-05T12:21:12;14.97;;;3.43;;
16579;SDS011;8402;51.466;6.806;2023-01-05T12:23:54;17.10;;;3.50;;
16579;SDS011;8402;51.466;6.806;2023-01-05T12:26:36;17.20;;;3.43;;
16579;SDS011;8402;51.466;6.806;2023-01-05T12:32:56;22.13;;;3.57;;
16579;SDS011;8402;51.466;6.806;2023-01-05T12:36:04;21.60;;;3.43;;
16579;SDS011;8402;51.466;6.806;2023-01-05T12:38:46;23.07;;;4.60;;
16579;SDS011;8402;51.466;6.806;2023-01-05T12:41:24;21.17;;;3.87;;
16579;SDS011;8402;51.466;6.806;2023-01-05T12:44:19;16.90;;;3.47;;
16579;SDS011;8402;51.466;6.806;2023-01-05T12:47:12;26.90;;;4.27;;
16579;SDS011;8402;51.466;6.806;2023-01-05T12:49:54;22.63;;;3.43;;
16579;SDS011;8402;51.466;6.806;2023-01-05T12:52:38;19.00;;;3.10;;
16579;SDS011;8402;51.466;6.806;2023-01-05T12:55:16;19.20;;;3.03;;
16579;SDS011;8402;51.466;6.806;2023-01-05T12:57:50;23.00;;;3.63;;
16579;SDS011;8402;51.466;6.806;2023-01-05T13:00:25;22.60;;;4.37;;
16579;SDS011;8402;51.466;6.806;2023-01-05T13:03:02;21.60;;;3.87;;
16579;SDS011;8402;51.466;6.806;2023-01-05T13:05:36;21.67;;;4.30;;
16579;SDS011;8402;51.466;6.806;2023-01-05T13:08:16;17.63;;;3.90;;
16579;SDS011;8402;51.466;6.806;2023-01-05T13:10:50;21.27;;;4.73;;
16579;SDS011;8402;51.466;6.806;2023-01-05T13:13:27;22.73;;;5.17;;
16579;SDS011;8402;51.466;6.806;2023-01-05T13:16:02;22.97;;;4.23;;
16579;SDS011;8402;51.466;6.806;2023-01-05T13:18:41;22.10;;;4.90;;
16579;SDS011;8402;51.466;6.806;2023-01-05T13:21:17;23.97;;;4.63;;
16579;SDS011;8402;51.466;6.806;2023-01-05T13:23:52;20.17;;;4.60;;
16579;SDS011;8402;51.466;6.806;2023-01-05T13:26:26;24.10;;;4.50;;
16579;SDS011;8402;51.466;6.806;2023-01-05T13:29:02;16.20;;;3.73;;
16579;SDS011;8402;51.466;6.806;2023-01-05T13:31:40;19.90;;;4.57;;
16579;SDS011;8402;51.466;6.806;2023-01-05T13:34:29;20.33;;;4.20;;
16579;SDS011;8402;51.466;6.806;2023-01-05T13:43:33;19.93;;;4.80;;
16579;SDS011;8402;51.466;6.806;2023-01-05T13:46:32;20.13;;;5.63;;
16579;SDS011;8402;51.466;6.806;2023-01-05T13:52:21;24.07;;;5.87;;
16579;SDS011;8402;51.466;6.806;2023-01-05T13:54:59;22.07;;;5.53;;
16579;SDS011;8402;51.466;6.806;2023-01-05T13:57:40;25.17;;;6.90;;
16579;SDS011;8402;51.466;6.806;2023-01-05T14:00:22;22.23;;;5.77;;
16579;SDS011;8402;51.466;6.806;2023-01-05T14:02:59;23.83;;;6.33;;
16579;SDS011;8402;51.466;6.806;2023-01-05T14:05:40;27.20;;;6.20;;
16579;SDS011;8402;51.466;6.806;2023-01-05T14:08:18;20.30;;;4.77;;
16579;SDS011;8402;51.466;6.806;2023-01-05T14:13:44;18.03;;;5.27;;
16579;SDS011;8402;51.466;6.806;2023-01-05T14:22:36;23.50;;;5.33;;
16579;SDS011;8402;51.466;6.806;2023-01-05T14:28:16;21.30;;;5.83;;
16579;SDS011;8402;51.466;6.806;2023-01-05T14:30:49;22.70;;;5.90;;
16579;SDS011;8402;51.466;6.806;2023-01-05T14:33:20;25.33;;;7.03;;
16579;SDS011;8402;51.466;6.806;2023-01-05T14:35:51;24.23;;;5.77;;
16579;SDS011;8402;51.466;6.806;2023-01-05T14:38:24;25.50;;;6.60;;
16579;SDS011;8402;51.466;6.806;2023-01-05T14:40:55;27.77;;;7.10;;
16579;SDS011;8402;51.466;6.806;2023-01-05T14:43:26;25.53;;;6.37;;
16579;SDS011;8402;51.466;6.806;2023-01-05T14:46:02;19.40;;;5.83;;
16579;SDS011;8402;51.466;6.806;2023-01-05T14:48:36;18.67;;;7.17;;
16579;SDS011;8402;51.466;6.806;2023-01-05T14:51:19;22.27;;;6.93;;
16579;SDS011;8402;51.466;6.806;2023-01-05T14:53:58;23.93;;;6.57;;
16579;SDS011;8402;51.466;6.806;2023-01-05T14:56:30;23.77;;;6.33;;
16579;SDS011;8402;51.466;6.806;2023-01-05T14:59:11;27.67;;;6.77;;
16579;SDS011;8402;51.466;6.806;2023-01-05T15:01:47;27.47;;;7.20;;
16579;SDS011;8402;51.466;6.806;2023-01-05T15:04:22;26.10;;;6.53;;
16579;SDS011;8402;51.466;6.806;2023-01-05T15:07:02;30.03;;;6.57;;
16579;SDS011;8402;51.466;6.806;2023-01-05T15:16:01;22.93;;;6.17;;
16579;SDS011;8402;51.466;6.806;2023-01-05T15:19:01;22.63;;;6.20;;
16579;SDS011;8402;51.466;6.806;2023-01-05T15:24:56;25.37;;;5.20;;
16579;SDS011;8402;51.466;6.806;2023-01-05T15:27:39;20.63;;;5.80;;
16579;SDS011;8402;51.466;6.806;2023-01-05T15:30:27;20.83;;;5.27;;
16579;SDS011;8402;51.466;6.806;2023-01-05T15:33:17;19.20;;;5.23;;
16579;SDS011;8402;51.466;6.806;2023-01-05T15:35:53;17.57;;;5.90;;
16579;SDS011;8402;51.466;6.806;2023-01-05T15:38:26;19.73;;;5.77;;
16579;SDS011;8402;51.466;6.806;2023-01-05T15:40:58;26.43;;;6.00;;
16579;SDS011;8402;51.466;6.806;2023-01-05T15:43:33;19.47;;;5.53;;
16579;SDS011;8402;51.466;6.806;2023-01-05T15:46:05;29.13;;;5.93;;
16579;SDS011;8402;51.466;6.806;2023-01-05T15:48:39;23.00;;;6.20;;
16579;SDS011;8402;51.466;6.806;2023-01-05T15:51:20;19.20;;;6.07;;
16579;SDS011;8402;51.466;6.806;2023-01-05T15:53:51;22.93;;;6.80;;
16579;SDS011;8402;51.466;6.806;2023-01-05T15:56:24;20.57;;;5.73;;
16579;SDS011;8402;51.466;6.806;2023-01-05T15:58:58;23.47;;;5.73;;
16579;SDS011;8402;51.466;6.806;2023-01-05T16:01:35;20.50;;;5.70;;
16579;SDS011;8402;51.466;6.806;2023-01-05T16:04:08;23.97;;;5.67;;
16579;SDS011;8402;51.466;6.806;2023-01-05T16:06:43;27.60;;;6.33;;
16579;SDS011;8402;51.466;6.806;2023-01-05T16:09:19;20.47;;;5.87;;
16579;SDS011;8402;51.466;6.806;2023-01-05T16:11:53;22.87;;;4.90;;
16579;SDS011;8402;51.466;6.806;2023-01-05T16:14:27;21.27;;;5.30;;
16579;SDS011;8402;51.466;6.806;2023-01-05T16:17:03;30.20;;;5.67;;
16579;SDS011;8402;51.466;6.806;2023-01-05T16:19:39;22.73;;;5.50;;
16579;SDS011;8402;51.466;6.806;2023-01-05T16:22:13;26.50;;;5.47;;